Time;durP1;ratioP1;P1;durP2;ratioP2;P2;SDS_P1;SDS_P2;PMS_P1;PMS_P2;Temp;Humidity;BMP_temperature;BMP_pressure;BME280_temperature;BME280_humidity;BME280_pressure;Samples;Min_cycle;Max_cycle;Signal;HPM_P1;HPM_P2
2021/03/28 00:01:23;;;;;;;7.55;4.15;;;333.40;1536.00;;;;;;5074362;28;20085;-73
2021/03/28 00:03:52;;;;;;;6.25;3.95;;;333.20;1536.00;;;;;;5092973;28;20046;-73
2021/03/28 00:06:32;;;;;;;6.55;4.00;;;333.20;1536.00;;;;;;5092546;28;20593;-72
2021/03/28 00:09:27;;;;;;;5.95;3.85;;;333.20;1536.00;;;;;;5092504;28;20047;-70
2021/03/28 00:12:19;;;;;;;5.95;4.25;;;333.30;1536.00;;;;;;5092403;28;20031;-71
2021/03/28 00:15:09;;;;;;;4.93;3.50;;;333.30;1536.00;;;;;;5092593;28;20026;-67
2021/03/28 00:17:38;;;;;;;7.47;3.67;;;333.20;1510.40;;;;;;5092260;28;20492;-72
2021/03/28 00:20:15;;;;;;;6.57;3.13;;;333.00;1510.40;;;;;;5074280;28;20028;-72
2021/03/28 00:23:02;;;;;;;4.32;2.78;;;333.10;1510.40;;;;;;5092096;28;20048;-75
2021/03/28 00:25:31;;;;;;;3.70;2.55;;;333.10;1484.80;;;;;;5092768;28;20055;-74
2021/03/28 00:27:59;;;;;;;6.57;3.05;;;333.00;1484.80;;;;;;5092213;28;20054;-69
2021/03/28 00:30:39;;;;;;;4.38;2.63;;;333.00;1484.80;;;;;;5092475;28;20028;-72
2021/03/28 00:33:10;;;;;;;7.40;3.60;;;333.00;1484.80;;;;;;5076564;28;20024;-67
2021/03/28 00:36:02;;;;;;;5.25;2.70;;;333.00;1510.40;;;;;;5078262;28;20097;-66
2021/03/28 00:38:47;;;;;;;4.97;2.50;;;333.00;1484.80;;;;;;5086842;28;20036;-72
2021/03/28 00:41:41;;;;;;;5.45;2.78;;;333.10;1459.20;;;;;;5096411;28;20421;-74
2021/03/28 00:44:19;;;;;;;5.72;2.80;;;333.00;1459.20;;;;;;5096126;28;20016;-66
2021/03/28 00:46:50;;;;;;;4.50;2.25;;;333.00;1459.20;;;;;;5096423;28;20384;-71
2021/03/28 00:49:41;;;;;;;7.60;2.47;;;333.00;1459.20;;;;;;5095792;28;20016;-74
2021/03/28 00:52:15;;;;;;;7.18;2.53;;;333.00;1459.20;;;;;;5096065;28;20484;-73
2021/03/28 00:54:51;;;;;;;7.88;2.28;;;333.00;1459.20;;;;;;5096154;28;20016;-72
2021/03/28 00:57:37;;;;;;;7.05;2.17;;;332.90;1459.20;;;;;;5095881;28;20066;-74
2021/03/28 01:00:18;;;;;;;6.72;2.38;;;332.90;1459.20;;;;;;5095797;28;20023;-75
2021/03/28 01:03:02;;;;;;;3.65;1.58;;;332.80;1459.20;;;;;;5077585;28;20035;-72
2021/03/28 01:05:43;;;;;;;5.93;1.95;;;332.80;1459.20;;;;;;5095884;28;20036;-75
2021/03/28 01:08:22;;;;;;;9.07;2.38;;;332.90;1459.20;;;;;;5095532;28;20102;-70
2021/03/28 01:11:07;;;;;;;4.32;2.28;;;332.90;1459.20;;;;;;5095680;28;20477;-74
2021/03/28 01:14:10;;;;;;;5.03;1.98;;;332.90;1459.20;;;;;;5095512;28;20130;-73
2021/03/28 01:16:56;;;;;;;4.05;1.92;;;332.80;1459.20;;;;;;5077324;28;20443;-73
2021/03/28 01:19:55;;;;;;;4.88;1.73;;;308.10;1433.60;;;;;;5094837;28;20039;-75
2021/03/28 01:22:47;;;;;;;11.48;2.88;;;308.00;1433.60;;;;;;5095360;28;20076;-73
2021/03/28 01:25:32;;;;;;;7.28;2.70;;;308.10;1433.60;;;;;;5095681;28;20016;-73
2021/03/28 01:28:05;;;;;;;6.95;2.00;;;308.00;1433.60;;;;;;5095355;28;20027;-75
2021/03/28 01:30:43;;;;;;;3.88;1.70;;;308.00;1433.60;;;;;;5095170;28;20031;-74
2021/03/28 01:33:38;;;;;;;5.32;2.20;;;308.00;1408.00;;;;;;5095297;28;20020;-75
2021/03/28 01:36:19;;;;;;;6.80;2.28;;;307.90;1433.60;;;;;;5084321;28;20460;-71
2021/03/28 01:39:02;;;;;;;8.27;2.45;;;307.90;1433.60;;;;;;5095113;28;20027;-73
2021/03/28 01:41:33;;;;;;;5.68;1.90;;;307.90;1433.60;;;;;;5095107;28;20031;-73
2021/03/28 01:44:10;;;;;;;7.18;2.00;;;307.90;1433.60;;;;;;5094420;28;20025;-72
2021/03/28 01:47:08;;;;;;;3.92;1.60;;;307.90;1433.60;;;;;;5094971;28;20031;-73
2021/03/28 01:49:47;;;;;;;5.82;2.13;;;307.80;1408.00;;;;;;5094957;28;20111;-72
2021/03/28 01:52:47;;;;;;;9.05;1.58;;;307.90;1408.00;;;;;;5095022;28;20121;-74
2021/03/28 01:55:21;;;;;;;8.35;1.90;;;307.90;1408.00;;;;;;5025482;28;20046;-72
2021/03/28 01:57:58;;;;;;;3.85;1.90;;;308.00;1382.40;;;;;;5094681;28;20532;-67
2021/03/28 02:00:59;;;;;;;5.57;1.35;;;307.90;1382.40;;;;;;5094774;28;20024;-66
2021/03/28 02:03:50;;;;;;;5.50;1.45;;;307.90;1382.40;;;;;;5094772;28;20021;-75
2021/03/28 02:06:34;;;;;;;6.65;1.30;;;307.80;1382.40;;;;;;5076481;28;20024;-71
2021/03/28 02:08:59;;;;;;;4.63;1.60;;;307.90;1382.40;;;;;;5094471;28;20022;-73
2021/03/28 02:11:48;;;;;;;6.53;1.80;;;307.90;1382.40;;;;;;5094337;28;20024;-70
2021/03/28 02:14:33;;;;;;;7.13;1.67;;;307.90;1382.40;;;;;;5083465;28;20104;-73
2021/03/28 02:17:19;;;;;;;4.65;1.45;;;307.90;1356.80;;;;;;5094317;28;20060;-73
2021/03/28 02:20:23;;;;;;;3.47;1.60;;;307.90;1356.80;;;;;;5080077;28;20028;-68
2021/03/28 02:23:15;;;;;;;3.53;1.40;;;307.90;1356.80;;;;;;5068588;28;20052;-66
2021/03/28 02:25:58;;;;;;;4.03;1.55;;;307.90;1356.80;;;;;;5085955;28;20035;-76
2021/03/28 02:28:57;;;;;;;6.75;1.42;;;307.90;1356.80;;;;;;5094214;28;20055;-72
2021/03/28 02:31:34;;;;;;;5.53;2.17;;;307.90;1356.80;;;;;;5094097;28;20555;-75
2021/03/28 02:34:31;;;;;;;8.60;1.70;;;307.90;1356.80;;;;;;5094164;28;20062;-73
2021/03/28 02:37:11;;;;;;;8.50;1.30;;;307.90;1356.80;;;;;;5092866;28;20435;-72
2021/03/28 02:39:57;;;;;;;5.82;1.75;;;307.90;1356.80;;;;;;5093865;28;20016;-72
2021/03/28 02:42:32;;;;;;;4.45;1.63;;;307.80;1356.80;;;;;;5094017;28;20023;-74
2021/03/28 02:45:09;;;;;;;6.07;1.40;;;307.90;1356.80;;;;;;5093658;28;20020;-71
2021/03/28 02:48:15;;;;;;;8.48;1.50;;;307.80;1356.80;;;;;;5093899;28;20081;-69
2021/03/28 02:50:50;;;;;;;4.80;1.40;;;307.90;1331.20;;;;;;5038545;28;20521;-72
2021/03/28 02:53:28;;;;;;;5.35;1.63;;;307.90;1331.20;;;;;;5093964;28;20103;-73
2021/03/28 02:56:18;;;;;;;5.00;1.20;;;307.90;1331.20;;;;;;5091316;28;20020;-71
2021/03/28 02:59:14;;;;;;;3.13;1.23;;;307.90;1331.20;;;;;;5093948;28;20036;-75
2021/03/28 03:02:09;;;;;;;6.18;1.42;;;307.80;1331.20;;;;;;5093289;28;20074;-72
2021/03/28 03:04:50;;;;;;;3.28;1.45;;;307.80;1331.20;;;;;;5093825;28;20472;-73
2021/03/28 03:07:27;;;;;;;6.60;1.60;;;307.70;1331.20;;;;;;5091935;28;20538;-72
2021/03/28 03:10:30;;;;;;;3.33;1.70;;;307.70;1331.20;;;;;;5092349;28;20027;-75
2021/03/28 03:13:16;;;;;;;2.47;1.30;;;307.80;1331.20;;;;;;5092935;28;20035;-75
2021/03/28 03:16:00;;;;;;;2.90;1.05;;;307.80;1331.20;;;;;;5093657;28;20028;-73
2021/03/28 03:19:01;;;;;;;1.70;0.98;;;307.70;1331.20;;;;;;5093058;28;20118;-74
2021/03/28 03:21:57;;;;;;;2.60;1.00;;;307.80;1331.20;;;;;;5093228;28;20059;-75
2021/03/28 03:25:00;;;;;;;3.38;1.10;;;307.70;1331.20;;;;;;5092801;28;20031;-75
2021/03/28 03:27:50;;;;;;;6.00;1.60;;;307.70;1356.80;;;;;;5093421;28;20024;-73
2021/03/28 03:30:39;;;;;;;4.43;1.25;;;307.70;1356.80;;;;;;5092771;28;20031;-73
2021/03/28 03:33:35;;;;;;;3.45;1.20;;;307.70;1356.80;;;;;;5093021;28;20026;-67
2021/03/28 03:36:33;;;;;;;4.57;1.40;;;307.60;1356.80;;;;;;5092959;28;20016;-72
2021/03/28 03:39:29;;;;;;;3.25;1.50;;;307.70;1382.40;;;;;;5077248;28;20036;-72
2021/03/28 03:42:26;;;;;;;2.75;1.40;;;307.70;1382.40;;;;;;5092716;28;20069;-71
2021/03/28 03:45:17;;;;;;;4.45;1.08;;;307.70;1382.40;;;;;;5051226;28;20055;-66
2021/03/28 03:48:08;;;;;;;3.72;1.10;;;307.70;1382.40;;;;;;5092766;28;20500;-72
2021/03/28 03:51:27;;;;;;;4.82;1.25;;;307.70;1382.40;;;;;;5074697;28;20032;-66
2021/03/28 03:54:16;;;;;;;3.60;1.40;;;307.70;1382.40;;;;;;5092656;28;20023;-73
2021/03/28 03:57:03;;;;;;;4.22;1.45;;;307.70;1382.40;;;;;;5092244;28;20036;-66
2021/03/28 03:59:56;;;;;;;5.78;1.70;;;307.70;1382.40;;;;;;5092865;28;20081;-73
2021/03/28 04:02:37;;;;;;;4.53;1.70;;;307.80;1382.40;;;;;;5092133;28;20035;-66
2021/03/28 04:05:30;;;;;;;4.13;1.40;;;307.80;1382.40;;;;;;5092775;28;20671;-73
2021/03/28 04:08:14;;;;;;;3.70;1.43;;;307.70;1382.40;;;;;;5094696;28;20058;-66
2021/03/28 04:10:48;;;;;;;5.60;1.23;;;307.70;1382.40;;;;;;5078980;28;20617;-74
2021/03/28 04:13:35;;;;;;;3.80;1.33;;;307.80;1382.40;;;;;;5095969;28;20028;-68
2021/03/28 04:16:19;;;;;;;2.22;1.17;;;307.80;1382.40;;;;;;5078949;28;20376;-72
2021/03/28 04:19:00;;;;;;;2.08;1.00;;;307.80;1382.40;;;;;;5096308;28;20028;-70
2021/03/28 04:21:50;;;;;;;2.70;1.00;;;307.80;1382.40;;;;;;5096423;28;20044;-71
2021/03/28 04:24:19;;;;;;;4.30;1.45;;;307.70;1382.40;;;;;;5096142;28;20384;-67
2021/03/28 04:27:13;;;;;;;3.70;1.35;;;307.70;1382.40;;;;;;5096811;28;20130;-71
2021/03/28 04:29:48;;;;;;;2.85;1.05;;;307.60;1382.40;;;;;;5096151;28;20016;-73
2021/03/28 04:33:06;;;;;;;5.05;1.90;;;307.70;1382.40;;;;;;5078587;28;20038;-70
2021/03/28 04:35:47;;;;;;;4.47;2.08;;;307.70;1382.40;;;;;;5078260;28;20097;-72
2021/03/28 04:38:53;;;;;;;3.05;1.55;;;307.70;1382.40;;;;;;5096385;28;20028;-74
2021/03/28 04:41:37;;;;;;;2.97;1.40;;;307.70;1408.00;;;;;;5094570;28;20107;-73
2021/03/28 04:44:26;;;;;;;3.35;1.27;;;307.70;1382.40;;;;;;5096279;28;20027;-73
2021/03/28 04:47:13;;;;;;;7.68;1.48;;;307.70;1382.40;;;;;;5054126;28;20032;-73
2021/03/28 04:49:51;;;;;;;4.68;1.60;;;307.70;1408.00;;;;;;5096379;28;20032;-73
2021/03/28 04:52:38;;;;;;;3.50;1.58;;;307.70;1382.40;;;;;;5095700;28;20464;-72
2021/03/28 04:55:31;;;;;;;5.00;1.50;;;307.70;1382.40;;;;;;5095828;28;20103;-73
2021/03/28 04:58:16;;;;;;;3.83;1.85;;;307.70;1408.00;;;;;;5095523;28;20457;-73
2021/03/28 05:00:50;;;;;;;4.30;1.88;;;307.70;1408.00;;;;;;5085340;28;20103;-73
2021/03/28 05:03:19;;;;;;;6.05;1.95;;;307.70;1408.00;;;;;;5074993;28;20099;-70
2021/03/28 05:06:08;;;;;;;10.48;5.05;;;307.70;1408.00;;;;;;5075603;28;20390;-72
2021/03/28 05:08:53;;;;;;;7.18;2.22;;;307.50;1408.00;;;;;;5075129;28;20029;-69
2021/03/28 05:12:01;;;;;;;4.95;1.73;;;307.70;1408.00;;;;;;5075762;28;20028;-73
2021/03/28 05:15:10;;;;;;;5.15;2.05;;;307.70;1433.60;;;;;;5074774;28;20074;-72
2021/03/28 05:17:59;;;;;;;5.32;2.08;;;307.70;1408.00;;;;;;4994106;28;20085;-71
2021/03/28 05:20:39;;;;;;;2.63;1.50;;;307.70;1433.60;;;;;;4992529;28;20044;-66
2021/03/28 05:23:36;;;;;;;3.65;1.88;;;307.70;1408.00;;;;;;5055900;28;20048;-72
2021/03/28 05:26:35;;;;;;;4.35;1.90;;;307.70;1408.00;;;;;;5074986;28;20469;-72
2021/03/28 05:29:41;;;;;;;5.13;2.47;;;307.70;1408.00;;;;;;5075090;28;20073;-73
2021/03/28 05:32:26;;;;;;;5.22;1.75;;;307.70;1408.00;;;;;;5075053;28;20021;-72
2021/03/28 05:35:29;;;;;;;3.92;2.10;;;307.70;1408.00;;;;;;5074736;28;20056;-73
2021/03/28 05:38:03;;;;;;;11.90;4.22;;;307.70;1408.00;;;;;;5091522;28;20075;-72
2021/03/28 05:41:05;;;;;;;9.60;3.53;;;307.70;1433.60;;;;;;5077089;28;20027;-74
2021/03/28 05:43:59;;;;;;;7.88;3.88;;;307.70;1433.60;;;;;;5078488;28;20476;-74
2021/03/28 05:46:46;;;;;;;8.95;3.05;;;307.70;1459.20;;;;;;5077328;28;20507;-66
2021/03/28 05:49:33;;;;;;;9.10;2.78;;;307.70;1484.80;;;;;;5093129;28;20029;-73
2021/03/28 05:52:36;;;;;;;7.70;3.35;;;307.70;1484.80;;;;;;5068040;28;20024;-73
2021/03/28 05:55:25;;;;;;;6.15;4.05;;;307.70;1510.40;;;;;;5084694;28;20381;-73
2021/03/28 05:58:13;;;;;;;8.25;3.63;;;307.60;1536.00;;;;;;5090317;28;20127;-72
2021/03/28 06:00:43;;;;;;;5.80;2.70;;;307.50;1510.40;;;;;;5074845;28;20024;-73
2021/03/28 06:03:34;;;;;;;10.10;3.85;;;307.40;1536.00;;;;;;5074241;28;20028;-72
2021/03/28 06:06:28;;;;;;;7.10;3.20;;;307.40;1536.00;;;;;;5074478;28;20032;-73
2021/03/28 06:09:18;;;;;;;7.50;3.55;;;307.40;1536.00;;;;;;5074019;28;20419;-73
2021/03/28 06:12:41;;;;;;;6.80;4.07;;;307.40;1536.00;;;;;;5074588;28;20436;-72
2021/03/28 06:15:07;;;;;;;9.00;4.68;;;307.40;1561.60;;;;;;4972766;28;20070;-73
2021/03/28 06:17:57;;;;;;;10.93;6.10;;;307.40;1561.60;;;;;;4973529;28;20034;-67
2021/03/28 06:20:35;;;;;;;7.38;5.13;;;307.40;1561.60;;;;;;5047698;28;20086;-70
2021/03/28 06:23:38;;;;;;;5.72;4.30;;;307.40;1536.00;;;;;;5094172;28;20127;-72
2021/03/28 06:26:24;;;;;;;8.05;3.80;;;307.40;1536.00;;;;;;5093748;28;20024;-73
2021/03/28 06:29:28;;;;;;;9.52;5.45;;;307.40;1536.00;;;;;;5094506;28;20571;-72
2021/03/28 06:32:29;;;;;;;9.25;5.13;;;307.40;1536.00;;;;;;5075726;28;20073;-72
2021/03/28 06:35:29;;;;;;;11.95;6.10;;;307.40;1536.00;;;;;;5093874;28;20028;-75
2021/03/28 06:38:19;;;;;;;7.78;4.63;;;307.50;1510.40;;;;;;5094057;28;20036;-65
2021/03/28 06:41:00;;;;;;;5.90;3.55;;;307.50;1510.40;;;;;;5093877;28;20107;-72
2021/03/28 06:43:35;;;;;;;10.75;4.82;;;307.50;1536.00;;;;;;5093798;28;20028;-73
2021/03/28 06:46:27;;;;;;;9.88;3.95;;;307.50;1536.00;;;;;;5093771;28;20024;-73
2021/03/28 06:49:30;;;;;;;4.97;2.85;;;307.50;1561.60;;;;;;5093766;28;20469;-69
2021/03/28 06:52:26;;;;;;;5.07;3.40;;;307.50;1536.00;;;;;;5093544;28;20056;-73
2021/03/28 06:54:55;;;;;;;7.80;3.78;;;307.60;1536.00;;;;;;5093519;28;20132;-74
2021/03/28 06:57:50;;;;;;;10.25;4.25;;;307.70;1510.40;;;;;;5091587;28;20039;-74
2021/03/28 07:00:24;;;;;;;12.85;4.82;;;307.70;1510.40;;;;;;5089700;28;20043;-74
2021/03/28 07:03:25;;;;;;;14.43;5.88;;;307.80;1484.80;;;;;;5073328;28;20111;-76
2021/03/28 07:06:23;;;;;;;15.85;7.55;;;307.90;1459.20;;;;;;5073213;28;20028;-74
2021/03/28 07:09:04;;;;;;;22.92;7.75;;;308.00;1459.20;;;;;;5062068;28;20037;-73
2021/03/28 07:11:51;;;;;;;10.93;4.53;;;308.00;1433.60;;;;;;5073463;28;20062;-74
2021/03/28 07:15:11;;;;;;;11.98;4.63;;;332.80;1408.00;;;;;;5064824;28;20072;-75
2021/03/28 07:18:04;;;;;;;6.78;3.60;;;332.90;1408.00;;;;;;5093546;28;20103;-74
2021/03/28 07:20:55;;;;;;;6.90;3.55;;;332.90;1382.40;;;;;;5093119;28;20023;-74
2021/03/28 07:23:46;;;;;;;6.82;3.75;;;332.90;1356.80;;;;;;5075253;28;20476;-75
2021/03/28 07:26:50;;;;;;;6.70;3.80;;;333.00;1356.80;;;;;;5073819;28;20151;-69
2021/03/28 07:30:11;;;;;;;10.82;4.78;;;333.10;1356.80;;;;;;5055270;28;20115;-73
2021/03/28 07:33:01;;;;;;;7.88;4.30;;;333.20;1356.80;;;;;;5080539;28;20389;-75
2021/03/28 07:35:33;;;;;;;10.18;5.93;;;333.20;1356.80;;;;;;5099191;28;20017;-67
2021/03/28 07:38:20;;;;;;;10.82;5.85;;;333.30;1356.80;;;;;;5107509;28;20387;-73
2021/03/28 07:41:23;;;;;;;7.20;4.30;;;333.30;1305.60;;;;;;5106019;28;20040;-74
2021/03/28 07:44:07;;;;;;;13.10;7.28;;;333.30;1305.60;;;;;;5085068;28;20035;-71
2021/03/28 07:46:48;;;;;;;186.15;67.38;;;333.40;1254.40;;;;;;5092909;28;20024;-71
2021/03/28 07:49:30;;;;;;;95.55;37.58;;;333.40;1254.40;;;;;;5093024;28;20787;-73
2021/03/28 07:52:35;;;;;;;65.53;27.70;;;333.40;1228.80;;;;;;5093044;28;20081;-66
2021/03/28 07:55:18;;;;;;;49.03;19.85;;;333.50;1228.80;;;;;;5092905;28;20035;-67
2021/03/28 07:58:00;;;;;;;74.63;35.45;;;333.50;1228.80;;;;;;5074563;28;20312;-70
2021/03/28 08:01:14;;;;;;;41.38;23.10;;;333.50;1152.00;;;;;;5093090;28;20024;-68
2021/03/28 08:04:03;;;;;;;9.88;4.30;;;333.60;1126.40;;;;;;5078421;28;20052;-72
2021/03/28 08:07:06;;;;;;;17.35;9.02;;;333.60;1126.40;;;;;;5092932;28;20031;-73
2021/03/28 08:09:59;;;;;;;7.07;3.40;;;333.60;1100.80;;;;;;5089843;28;20366;-74
2021/03/28 08:12:51;;;;;;;8.33;3.33;;;333.50;1075.20;;;;;;5085121;28;20077;-69
2021/03/28 08:15:43;;;;;;;10.02;3.05;;;333.50;1075.20;;;;;;5085583;28;20020;-73
2021/03/28 08:18:32;;;;;;;9.00;5.22;;;333.50;1049.60;;;;;;5080862;28;20032;-74
2021/03/28 08:21:43;;;;;;;13.63;5.25;;;333.40;1075.20;;;;;;5098635;28;20032;-73
2021/03/28 08:24:33;;;;;;;7.13;3.40;;;333.50;1100.80;;;;;;5059160;28;20040;-76
2021/03/28 08:27:17;;;;;;;9.00;4.28;;;333.40;1100.80;;;;;;5102147;28;20111;-76
2021/03/28 08:30:10;;;;;;;7.63;4.30;;;333.40;1100.80;;;;;;5090182;28;20026;-75
2021/03/28 08:32:45;;;;;;;12.00;6.25;;;333.50;1126.40;;;;;;5098506;28;20490;-75
2021/03/28 08:35:11;;;;;;;15.88;6.60;;;333.50;1126.40;;;;;;5100288;28;20027;-73
2021/03/28 08:38:02;;;;;;;12.70;7.35;;;333.50;1126.40;;;;;;5072281;28;20028;-73
2021/03/28 08:40:52;;;;;;;13.27;6.85;;;333.60;1126.40;;;;;;5063769;28;20116;-68
2021/03/28 08:43:55;;;;;;;8.27;3.70;;;333.60;1100.80;;;;;;5074398;28;20473;-73
2021/03/28 08:47:00;;;;;;;10.60;4.28;;;333.50;1100.80;;;;;;5087985;28;20157;-67
2021/03/28 08:49:32;;;;;;;7.10;3.63;;;333.60;1075.20;;;;;;5062595;28;20020;-66
2021/03/28 08:52:10;;;;;;;11.20;5.82;;;333.60;1100.80;;;;;;5085366;28;20111;-74
2021/03/28 08:55:00;;;;;;;7.30;3.80;;;333.70;1126.40;;;;;;5082959;28;20098;-73
2021/03/28 08:57:39;;;;;;;6.68;3.50;;;358.40;1126.40;;;;;;5071489;28;20101;-75
2021/03/28 09:00:07;;;;;;;7.30;4.13;;;358.40;1126.40;;;;;;5083908;28;20020;-73
2021/03/28 09:03:10;;;;;;;16.90;3.10;;;358.40;1100.80;;;;;;5067834;28;20397;-73
2021/03/28 09:05:50;;;;;;;10.45;2.90;;;358.40;1152.00;;;;;;5081442;28;20118;-69
2021/03/28 09:08:47;;;;;;;11.05;5.97;;;358.40;1126.40;;;;;;5078823;28;20025;-67
2021/03/28 09:11:28;;;;;;;6.90;4.03;;;358.50;1100.80;;;;;;5057286;28;20048;-66
2021/03/28 09:14:18;;;;;;;23.08;14.40;;;358.50;1100.80;;;;;;5074303;28;20024;-66
2021/03/28 09:17:14;;;;;;;10.20;5.57;;;358.60;1126.40;;;;;;5074017;28;20028;-66
2021/03/28 09:19:55;;;;;;;16.90;9.15;;;358.60;1100.80;;;;;;5074080;28;20028;-66
2021/03/28 09:22:42;;;;;;;13.10;11.60;;;358.60;1075.20;;;;;;5081632;28;20048;-66
2021/03/28 09:25:35;;;;;;;13.35;10.73;;;358.60;1075.20;;;;;;5095483;28;20127;-68
2021/03/28 09:28:29;;;;;;;5.45;2.95;;;358.90;1049.60;;;;;;5078137;28;20056;-73
2021/03/28 09:31:08;;;;;;;9.50;3.60;;;359.10;1049.60;;;;;;5055555;28;20442;-71
2021/03/28 09:34:02;;;;;;;7.43;2.13;;;359.20;1024.00;;;;;;5073682;28;20544;-71
2021/03/28 09:36:37;;;;;;;4.50;2.22;;;359.20;998.40;;;;;;5073391;28;20031;-71
2021/03/28 09:39:49;;;;;;;9.38;7.75;;;359.20;998.40;;;;;;5073232;28;20044;-72
2021/03/28 09:42:49;;;;;;;10.15;5.45;;;359.10;998.40;;;;;;4991435;28;20114;-72
2021/03/28 09:45:42;;;;;;;19.85;8.75;;;359.20;1024.00;;;;;;4993834;28;20058;-73
2021/03/28 09:48:26;;;;;;;16.10;6.88;;;359.20;1024.00;;;;;;5069740;28;20061;-66
2021/03/28 09:50:58;;;;;;;;;;;359.10;998.40;;;;;;5075492;28;20359;-67
2021/03/28 09:54:05;;;;;;;6.90;2.90;;;359.20;1024.00;;;;;;5074717;28;20283;-68
2021/03/28 09:56:52;;;;;;;5.38;2.60;;;359.20;998.40;;;;;;5074626;28;20027;-73
2021/03/28 09:59:39;;;;;;;5.90;2.42;;;359.20;1024.00;;;;;;5074179;28;20025;-72
2021/03/28 10:02:45;;;;;;;6.38;2.22;;;359.10;998.40;;;;;;5076037;28;20036;-69
2021/03/28 10:05:17;;;;;;;9.10;3.13;;;359.10;998.40;;;;;;5072622;28;20024;-66
2021/03/28 10:07:51;;;;;;;7.40;3.28;;;359.00;1024.00;;;;;;5055002;28;20500;-65
2021/03/28 10:10:26;;;;;;;13.50;5.93;;;358.90;1024.00;;;;;;5072252;28;20535;-68
2021/03/28 10:13:18;;;;;;;8.27;4.03;;;358.90;1024.00;;;;;;5072840;28;20029;-72
2021/03/28 10:16:00;;;;;;;4.55;1.95;;;358.80;1024.00;;;;;;5026387;28;20074;-71
2021/03/28 10:18:47;;;;;;;7.10;2.50;;;358.80;998.40;;;;;;5072629;28;20052;-72
2021/03/28 10:21:32;;;;;;;15.23;8.02;;;358.80;998.40;;;;;;5072618;28;20064;-71
2021/03/28 10:24:35;;;;;;;5.05;2.95;;;358.70;998.40;;;;;;5087554;28;20028;-73
2021/03/28 10:27:19;;;;;;;12.18;4.13;;;358.70;972.80;;;;;;5094125;28;20032;-70
2021/03/28 10:30:09;;;;;;;6.10;2.47;;;358.70;972.80;;;;;;5094479;28;20024;-67
2021/03/28 10:32:43;;;;;;;6.38;3.65;;;358.80;972.80;;;;;;5094033;28;20367;-67
2021/03/28 10:35:37;;;;;;;5.78;2.58;;;358.80;998.40;;;;;;5078780;28;20028;-67
2021/03/28 10:38:37;;;;;;;22.40;3.88;;;358.90;998.40;;;;;;5080756;28;20478;-67
2021/03/28 10:41:37;;;;;;;5.00;1.77;;;358.90;998.40;;;;;;5075478;28;20107;-68
2021/03/28 10:44:29;;;;;;;6.07;2.20;;;359.00;998.40;;;;;;5068637;28;20041;-70
2021/03/28 10:47:36;;;;;;;7.75;2.10;;;359.00;998.40;;;;;;5035526;28;20565;-68
2021/03/28 10:50:23;;;;;;;8.32;3.13;;;358.90;998.40;;;;;;5069641;28;20487;-73
2021/03/28 10:53:07;;;;;;;10.18;5.32;;;358.90;998.40;;;;;;5078683;28;20071;-74
2021/03/28 10:56:09;;;;;;;7.32;2.85;;;358.90;1024.00;;;;;;5091556;28;20044;-69
2021/03/28 10:59:26;;;;;;;6.03;2.97;;;358.90;1024.00;;;;;;5092990;28;20484;-73
2021/03/28 11:02:25;;;;;;;11.27;5.65;;;358.90;1024.00;;;;;;5074658;28;20028;-69
2021/03/28 11:05:13;;;;;;;11.23;4.95;;;358.90;972.80;;;;;;5092670;28;20062;-67
2021/03/28 11:08:08;;;;;;;8.30;4.55;;;359.00;972.80;;;;;;5092637;28;20031;-74
2021/03/28 11:10:46;;;;;;;7.43;3.10;;;358.90;947.20;;;;;;5051032;28;20476;-74
2021/03/28 11:13:38;;;;;;;5.80;1.70;;;359.00;972.80;;;;;;5075148;28;20027;-74
2021/03/28 11:16:24;;;;;;;4.30;1.73;;;359.10;972.80;;;;;;5092753;28;20024;-72
2021/03/28 11:19:28;;;;;;;6.15;2.30;;;359.10;972.80;;;;;;5074560;28;20507;-74
2021/03/28 11:22:12;;;;;;;7.15;2.90;;;359.10;972.80;;;;;;5092750;28;20040;-73
2021/03/28 11:25:00;;;;;;;7.85;2.58;;;359.00;972.80;;;;;;5093376;28;20020;-69
2021/03/28 11:27:44;;;;;;;13.63;4.63;;;358.90;998.40;;;;;;5092879;28;20376;-72
2021/03/28 11:30:45;;;;;;;10.00;4.95;;;359.00;998.40;;;;;;5075213;28;20118;-73
2021/03/28 11:33:20;;;;;;;12.00;4.20;;;359.10;972.80;;;;;;5092746;28;20020;-74
2021/03/28 11:35:56;;;;;;;9.23;4.03;;;359.10;998.40;;;;;;5075238;28;20148;-73
2021/03/28 11:38:22;;;;;;;16.20;7.72;;;359.10;998.40;;;;;;5092593;28;20036;-73
2021/03/28 11:40:54;;;;;;;10.48;3.83;;;359.10;998.40;;;;;;5093052;28;20024;-73
2021/03/28 11:43:31;;;;;;;7.70;3.35;;;359.20;998.40;;;;;;5092947;28;20028;-73
2021/03/28 11:46:06;;;;;;;10.70;3.83;;;359.20;972.80;;;;;;5093151;28;20020;-72
2021/03/28 11:48:41;;;;;;;9.48;4.93;;;359.20;998.40;;;;;;5093000;28;20069;-73
2021/03/28 11:51:51;;;;;;;9.48;3.78;;;359.00;998.40;;;;;;5074663;28;20462;-74
2021/03/28 11:54:22;;;;;;;7.80;3.45;;;359.10;1024.00;;;;;;5010611;28;20030;-73
2021/03/28 11:57:02;;;;;;;10.27;3.90;;;359.10;972.80;;;;;;5083775;28;20032;-73
2021/03/28 12:00:01;;;;;;;9.60;4.90;;;359.10;998.40;;;;;;5092661;28;20024;-72
2021/03/28 12:02:28;;;;;;;10.68;3.22;;;359.10;972.80;;;;;;5023605;28;20125;-72
2021/03/28 12:04:57;;;;;;;18.08;8.95;;;359.20;998.40;;;;;;5090009;28;20207;-73
2021/03/28 12:07:35;;;;;;;17.15;5.68;;;359.20;972.80;;;;;;5092170;28;20028;-72
2021/03/28 12:10:02;;;;;;;7.57;3.03;;;359.30;972.80;;;;;;5091905;28;20020;-71
2021/03/28 12:12:40;;;;;;;10.65;3.70;;;384.00;947.20;;;;;;5080683;28;20047;-70
2021/03/28 12:15:45;;;;;;;15.02;5.18;;;384.00;947.20;;;;;;5083610;28;20024;-72
2021/03/28 12:18:29;;;;;;;12.18;5.53;;;384.10;947.20;;;;;;5083619;28;20127;-72
2021/03/28 12:21:06;;;;;;;37.55;23.33;;;384.10;947.20;;;;;;5090127;28;20077;-73
2021/03/28 12:23:56;;;;;;;26.77;16.30;;;384.10;947.20;;;;;;5079024;28;20409;-73
2021/03/28 12:26:29;;;;;;;25.23;12.20;;;384.10;947.20;;;;;;5082226;28;20020;-71
2021/03/28 12:29:03;;;;;;;13.93;8.15;;;384.20;947.20;;;;;;5084517;28;20556;-67
2021/03/28 12:31:48;;;;;;;13.32;6.18;;;384.20;921.60;;;;;;5083602;28;20330;-71
2021/03/28 12:34:36;;;;;;;6.22;2.58;;;384.30;896.00;;;;;;5075312;28;20032;-75
2021/03/28 12:37:08;;;;;;;6.88;4.30;;;384.30;921.60;;;;;;5095262;28;20043;-69
2021/03/28 12:39:39;;;;;;;8.20;3.55;;;384.40;896.00;;;;;;5095429;28;20036;-69
2021/03/28 12:42:05;;;;;;;10.82;3.50;;;384.30;870.40;;;;;;5082617;28;20090;-70
2021/03/28 12:44:34;;;;;;;6.43;3.13;;;384.40;870.40;;;;;;5076139;28;20028;-66
2021/03/28 12:47:27;;;;;;;7.95;3.13;;;384.40;819.20;;;;;;5080764;28;20488;-74
2021/03/28 12:49:55;;;;;;;12.00;3.80;;;384.40;819.20;;;;;;5057630;28;20048;-73
2021/03/28 12:52:41;;;;;;;8.60;3.75;;;384.20;844.80;;;;;;5081093;28;20039;-67
2021/03/28 12:55:33;;;;;;;7.47;3.42;;;384.30;819.20;;;;;;5078840;28;20029;-78
2021/03/28 12:58:08;;;;;;;17.63;5.88;;;384.20;844.80;;;;;;5075832;28;20040;-76
2021/03/28 13:00:40;;;;;;;15.98;3.72;;;384.40;896.00;;;;;;5075357;28;20025;-79
2021/03/28 13:03:45;;;;;;;12.20;4.00;;;384.40;844.80;;;;;;5086915;28;20107;-77
2021/03/28 13:06:37;;;;;;;14.05;3.92;;;384.40;844.80;;;;;;5088126;28;20097;-70
2021/03/28 13:09:09;;;;;;;55.78;6.47;;;384.40;844.80;;;;;;5086990;28;20158;-79
2021/03/28 13:11:59;;;;;;;12.32;2.70;;;384.40;844.80;;;;;;5078403;28;20053;-74
2021/03/28 13:14:34;;;;;;;6.07;2.40;;;384.50;896.00;;;;;;5080215;28;20116;-77
2021/03/28 13:17:18;;;;;;;14.57;3.58;;;384.70;870.40;;;;;;5075079;28;20025;-74
2021/03/28 13:19:51;;;;;;;4.03;1.70;;;384.70;844.80;;;;;;5075708;28;20047;-86
2021/03/28 13:22:29;;;;;;;7.00;2.10;;;384.80;870.40;;;;;;5074751;28;20040;-70
2021/03/28 13:25:13;;;;;;;12.52;2.55;;;384.80;844.80;;;;;;5057425;28;20119;-66
2021/03/28 13:27:39;;;;;;;6.30;2.40;;;384.70;844.80;;;;;;5075034;28;20020;-72
2021/03/28 13:30:14;;;;;;;12.43;2.85;;;384.40;870.40;;;;;;5075646;28;20396;-86
2021/03/28 13:32:46;;;;;;;21.50;3.42;;;384.50;896.00;;;;;;5076085;28;20497;-85
2021/03/28 13:35:35;;;;;;;15.02;3.90;;;384.40;921.60;;;;;;5075173;28;20036;-73
2021/03/28 13:38:15;;;;;;;16.75;3.58;;;384.20;921.60;;;;;;5074856;28;20106;-73
2021/03/28 13:40:53;;;;;;;18.75;7.25;;;384.40;896.00;;;;;;5073674;28;20465;-74
2021/03/28 13:43:22;;;;;;;10.00;4.97;;;384.30;921.60;;;;;;5082185;28;20473;-73
2021/03/28 13:45:50;;;;;;;9.63;3.47;;;384.40;921.60;;;;;;5092665;28;20103;-74
2021/03/28 13:48:16;;;;;;;20.85;9.32;;;384.50;896.00;;;;;;5095100;28;20054;-70
2021/03/28 13:50:45;;;;;;;13.40;5.07;;;384.50;896.00;;;;;;5094665;28;20052;-73
2021/03/28 13:53:19;;;;;;;11.23;3.78;;;384.50;870.40;;;;;;5085419;28;20028;-74
2021/03/28 13:56:05;;;;;;;13.95;4.90;;;384.50;870.40;;;;;;5074277;28;20640;-73